Time;durP1;ratioP1;P1;durP2;ratioP2;P2;SDS_P1;SDS_P2;PMS_P1;PMS_P2;Temp;Humidity;BMP_temperature;BMP_pressure;BME280_temperature;BME280_humidity;BME280_pressure;Samples;Min_cycle;Max_cycle;Signal;HPM_P1;HPM_P2
2021/12/18 00:02:06;;;;;;;70.97;48.53;;;;;;;;;;5019844;28;20038;-57
2021/12/18 00:04:32;;;;;;;65.87;46.77;;;;;;;;;;5015254;28;20057;-57
2021/12/18 00:06:58;;;;;;;68.60;47.93;;;;;;;;;;5016125;28;20122;-59
2021/12/18 00:09:30;;;;;;;72.40;50.37;;;;;;;;;;5023146;28;20719;-57
2021/12/18 00:11:57;;;;;;;65.93;46.13;;;;;;;;;;5031210;28;20076;-57
2021/12/18 00:14:23;;;;;;;69.57;46.27;;;;;;;;;;5026293;28;20088;-56
2021/12/18 00:16:49;;;;;;;70.83;46.30;;;;;;;;;;5017782;28;20099;-52
2021/12/18 00:19:16;;;;;;;74.53;50.67;;;;;;;;;;5025952;28;20044;-55
2021/12/18 00:21:42;;;;;;;79.00;50.87;;;;;;;;;;5023012;28;20041;-55
2021/12/18 00:24:08;;;;;;;73.10;48.73;;;;;;;;;;5029115;28;20045;-57
2021/12/18 00:26:35;;;;;;;76.53;49.43;;;;;;;;;;5022382;28;20392;-55
2021/12/18 00:29:01;;;;;;;72.30;48.80;;;;;;;;;;5027483;28;20149;-56
2021/12/18 00:31:27;;;;;;;76.20;49.43;;;;;;;;;;5020369;28;20029;-61
2021/12/18 00:33:53;;;;;;;73.63;46.53;;;;;;;;;;5012491;28;20026;-51
2021/12/18 00:36:19;;;;;;;75.20;47.60;;;;;;;;;;5022091;28;20090;-56
2021/12/18 00:38:45;;;;;;;74.13;49.17;;;;;;;;;;5021793;28;20396;-56
2021/12/18 00:41:16;;;;;;;71.57;47.73;;;;;;;;;;5020596;28;20046;-54
2021/12/18 00:46:27;;;;;;;70.85;46.97;;;;;;;;;;5023621;28;20133;-59
2021/12/18 00:48:54;;;;;;;68.90;45.17;;;;;;;;;;5026758;28;20045;-57
2021/12/18 00:51:20;;;;;;;71.07;47.00;;;;;;;;;;5024457;28;20121;-57
2021/12/18 00:53:46;;;;;;;71.13;45.93;;;;;;;;;;5011827;28;20079;-55
2021/12/18 00:56:12;;;;;;;70.77;44.93;;;;;;;;;;5022373;28;20381;-57
2021/12/18 00:58:54;;;;;;;70.77;46.20;;;;;;;;;;5029777;28;20033;-57
2021/12/18 01:01:21;;;;;;;71.97;47.13;;;;;;;;;;5021995;28;20064;-57
2021/12/18 01:03:53;;;;;;;69.40;45.33;;;;;;;;;;5028779;28;20393;-56
2021/12/18 01:06:20;;;;;;;67.67;43.93;;;;;;;;;;5024814;28;20092;-56
2021/12/18 01:08:46;;;;;;;66.77;44.47;;;;;;;;;;5027369;28;20099;-57
2021/12/18 01:13:52;;;;;;;66.77;44.83;;;;;;;;;;5020969;28;20060;-57
2021/12/18 01:16:33;;;;;;;66.80;44.30;;;;;;;;;;5024615;28;20062;-58
2021/12/18 01:24:29;;;;;;;63.28;42.78;;;;;;;;;;5027697;28;20539;-57
2021/12/18 01:26:55;;;;;;;67.83;43.30;;;;;;;;;;5028493;28;20049;-57
2021/12/18 01:29:21;;;;;;;62.97;43.50;;;;;;;;;;5004565;28;20163;-56
2021/12/18 01:31:47;;;;;;;66.87;44.50;;;;;;;;;;5027098;28;20018;-56
2021/12/18 01:34:13;;;;;;;62.40;43.77;;;;;;;;;;5022821;28;20103;-57
2021/12/18 01:36:39;;;;;;;67.60;45.00;;;;;;;;;;5027585;28;20128;-57
2021/12/18 01:39:05;;;;;;;70.57;45.57;;;;;;;;;;5025216;28;20380;-57
2021/12/18 01:41:40;;;;;;;58.13;43.00;;;;;;;;;;5012446;28;20113;-57
2021/12/18 01:54:38;;;;;;;69.10;45.97;;;;;;;;;;4996527;28;20633;-57
2021/12/18 01:57:04;;;;;;;68.63;44.80;;;;;;;;;;5025213;28;20136;-57
2021/12/18 01:59:39;;;;;;;67.33;45.27;;;;;;;;;;5021928;28;20085;-57
2021/12/18 02:02:05;;;;;;;64.95;44.17;;;;;;;;;;5030118;28;20045;-57
2021/12/18 02:04:31;;;;;;;60.67;41.23;;;;;;;;;;5020944;28;20159;-58
2021/12/18 02:06:59;;;;;;;61.93;42.17;;;;;;;;;;5029104;28;20076;-57
2021/12/18 02:09:32;;;;;;;59.70;42.00;;;;;;;;;;5023597;28;20044;-57
2021/12/18 02:11:59;;;;;;;64.37;41.90;;;;;;;;;;5021710;28;20044;-59
2021/12/18 02:19:33;;;;;;;59.63;42.20;;;;;;;;;;5009368;28;20072;-58
2021/12/18 02:20:39;;;;;;;59.78;39.22;;;;;;;;;;4968140;28;20438;-58
2021/12/18 02:23:05;;;;;;;63.80;40.40;;;;;;;;;;5002225;28;20033;-57
2021/12/18 02:25:33;;;;;;;53.47;38.07;;;;;;;;;;5023447;28;20530;-56
2021/12/18 02:28:00;;;;;;;57.40;40.47;;;;;;;;;;5027635;28;20045;-59
2021/12/18 02:30:26;;;;;;;54.80;38.57;;;;;;;;;;5023613;28;20045;-57
2021/12/18 02:32:53;;;;;;;59.63;41.60;;;;;;;;;;5009498;28;20170;-56
2021/12/18 02:35:30;;;;;;;62.37;40.90;;;;;;;;;;5024418;28;20033;-58
2021/12/18 02:44:00;;;;;;;60.83;43.40;;;;;;;;;;4983973;28;20070;-59
2021/12/18 02:46:26;;;;;;;61.70;43.67;;;;;;;;;;4980672;28;20074;-57
2021/12/18 02:48:53;;;;;;;59.83;42.43;;;;;;;;;;4967118;28;20034;-58
2021/12/18 02:51:20;;;;;;;60.03;44.50;;;;;;;;;;4980985;28;20057;-56
2021/12/18 02:53:47;;;;;;;57.53;42.63;;;;;;;;;;4984274;28;20287;-56
2021/12/18 02:56:14;;;;;;;61.03;43.07;;;;;;;;;;4982450;28;20042;-55
2021/12/18 02:58:41;;;;;;;59.47;41.60;;;;;;;;;;4981524;28;20043;-55
2021/12/18 03:01:08;;;;;;;61.50;44.30;;;;;;;;;;4966531;28;20561;-57
2021/12/18 03:03:37;;;;;;;61.97;43.37;;;;;;;;;;4981618;28;20058;-54
2021/12/18 03:08:59;;;;;;;57.93;41.23;;;;;;;;;;4983669;28;20081;-57
2021/12/18 03:27:21;;;;;;;55.77;41.53;;;;;;;;;;5019895;28;20033;-56
2021/12/18 03:29:47;;;;;;;56.63;40.43;;;;;;;;;;5025538;28;20061;-55
2021/12/18 03:32:13;;;;;;;53.70;38.70;;;;;;;;;;5008486;28;20494;-56
2021/12/18 03:34:39;;;;;;;58.23;42.00;;;;;;;;;;5024359;28;20040;-56
2021/12/18 03:37:06;;;;;;;59.63;41.37;;;;;;;;;;5019468;28;20033;-55
2021/12/18 03:39:32;;;;;;;61.20;43.30;;;;;;;;;;5018379;28;20045;-56
2021/12/18 03:41:58;;;;;;;59.80;42.17;;;;;;;;;;5026832;28;20117;-56
2021/12/18 03:44:24;;;;;;;62.37;42.33;;;;;;;;;;5027337;28;20107;-55
2021/12/18 03:46:51;;;;;;;62.77;43.03;;;;;;;;;;5026861;28;20037;-56
2021/12/18 03:49:17;;;;;;;59.30;42.73;;;;;;;;;;5025941;28;20037;-57
2021/12/18 03:51:43;;;;;;;63.27;44.07;;;;;;;;;;5032094;28;20045;-54
2021/12/18 03:54:09;;;;;;;64.13;43.73;;;;;;;;;;5021860;28;20038;-56
2021/12/18 03:56:35;;;;;;;67.53;45.07;;;;;;;;;;5028956;28;20025;-56
2021/12/18 03:59:02;;;;;;;71.37;45.67;;;;;;;;;;5022511;28;20045;-57
2021/12/18 04:01:28;;;;;;;61.60;44.30;;;;;;;;;;5029730;28;20445;-61
2021/12/18 04:03:54;;;;;;;64.20;42.23;;;;;;;;;;5027463;28;20041;-57
2021/12/18 04:06:20;;;;;;;63.27;42.40;;;;;;;;;;5033785;28;20094;-56
2021/12/18 04:08:46;;;;;;;58.77;40.60;;;;;;;;;;5024848;28;20106;-53
2021/12/18 04:11:12;;;;;;;58.20;42.43;;;;;;;;;;5028648;28;20033;-57
2021/12/18 04:13:43;;;;;;;59.67;41.30;;;;;;;;;;5020388;28;20033;-55
2021/12/18 04:16:09;;;;;;;63.00;43.17;;;;;;;;;;5029747;28;20041;-55
2021/12/18 04:18:35;;;;;;;66.23;44.07;;;;;;;;;;5029561;28;20029;-57
2021/12/18 04:21:01;;;;;;;63.30;43.57;;;;;;;;;;5024585;28;20546;-57
2021/12/18 04:23:27;;;;;;;66.20;45.03;;;;;;;;;;5029482;28;20045;-57
2021/12/18 04:25:55;;;;;;;65.17;46.13;;;;;;;;;;5024403;28;20053;-55
2021/12/18 04:28:21;;;;;;;69.17;46.87;;;;;;;;;;5028299;28;20506;-54
2021/12/18 04:30:47;;;;;;;73.40;47.07;;;;;;;;;;5004908;28;20041;-56
2021/12/18 04:33:13;;;;;;;73.33;47.60;;;;;;;;;;5027348;28;20030;-57
2021/12/18 04:35:39;;;;;;;70.17;45.67;;;;;;;;;;5025177;28;20471;-57
2021/12/18 04:38:05;;;;;;;69.27;43.63;;;;;;;;;;5029188;28;20064;-57
2021/12/18 04:40:32;;;;;;;66.73;43.83;;;;;;;;;;5021088;28;20399;-55
2021/12/18 04:42:58;;;;;;;64.70;43.60;;;;;;;;;;5026305;28;20034;-60
2021/12/18 04:45:25;;;;;;;76.77;46.40;;;;;;;;;;5005915;28;20061;-56
2021/12/18 04:47:51;;;;;;;70.53;44.70;;;;;;;;;;5029033;28;20037;-56
2021/12/18 04:50:17;;;;;;;69.47;44.30;;;;;;;;;;5019200;28;20037;-57
2021/12/18 04:52:43;;;;;;;61.20;42.47;;;;;;;;;;5027978;28;20034;-56
2021/12/18 04:55:09;;;;;;;67.37;44.17;;;;;;;;;;5027297;28;20116;-57
2021/12/18 04:57:57;;;;;;;63.30;42.63;;;;;;;;;;5024716;28;20491;-57
2021/12/18 05:00:30;;;;;;;65.90;43.20;;;;;;;;;;5022266;28;20053;-56
2021/12/18 05:02:59;;;;;;;62.43;42.20;;;;;;;;;;5027990;28;20068;-56
2021/12/18 05:05:25;;;;;;;66.53;44.57;;;;;;;;;;5025360;28;20120;-56
2021/12/18 05:08:10;;;;;;;60.67;42.10;;;;;;;;;;5025133;28;20048;-56
2021/12/18 05:10:36;;;;;;;62.35;43.65;;;;;;;;;;4983205;28;20164;-59
2021/12/18 05:13:02;;;;;;;61.63;40.97;;;;;;;;;;5023363;28;20040;-56
2021/12/18 05:18:32;;;;;;;75.03;42.70;;;;;;;;;;5020055;28;20643;-57
2021/12/18 05:20:57;;;;;;;67.90;41.80;;;;;;;;;;5030687;28;20038;-58
2021/12/18 05:23:23;;;;;;;68.57;43.37;;;;;;;;;;5022812;28;20081;-57
2021/12/18 05:25:49;;;;;;;64.07;42.43;;;;;;;;;;5028797;28;20045;-57
2021/12/18 05:28:15;;;;;;;66.10;41.17;;;;;;;;;;5005141;28;20034;-56
2021/12/18 05:30:42;;;;;;;68.57;42.37;;;;;;;;;;5025098;28;20479;-56
2021/12/18 05:33:08;;;;;;;68.00;42.30;;;;;;;;;;5025658;28;20036;-57
2021/12/18 05:35:34;;;;;;;62.93;44.33;;;;;;;;;;5029830;28;20055;-57
2021/12/18 05:38:06;;;;;;;75.57;46.87;;;;;;;;;;5023277;28;20057;-55
2021/12/18 05:40:33;;;;;;;67.80;42.30;;;;;;;;;;5027728;28;20443;-56
2021/12/18 05:42:59;;;;;;;71.23;42.77;;;;;;;;;;5025235;28;20116;-57
2021/12/18 05:45:25;;;;;;;69.53;43.50;;;;;;;;;;5029196;28;20061;-56
2021/12/18 05:47:51;;;;;;;76.90;44.67;;;;;;;;;;5024589;28;20037;-56
2021/12/18 05:50:19;;;;;;;77.67;44.97;;;;;;;;;;5008890;28;20044;-57
2021/12/18 05:52:46;;;;;;;71.33;45.40;;;;;;;;;;5027054;28;22531;-56
2021/12/18 05:55:14;;;;;;;72.00;44.27;;;;;;;;;;5028842;28;20045;-55
2021/12/18 05:57:40;;;;;;;72.70;44.23;;;;;;;;;;5025231;28;20033;-55
2021/12/18 06:00:07;;;;;;;72.63;45.60;;;;;;;;;;5026290;28;20120;-56
2021/12/18 06:02:33;;;;;;;68.83;42.73;;;;;;;;;;5025902;28;20041;-56
2021/12/18 06:04:59;;;;;;;74.73;43.70;;;;;;;;;;5023874;28;20046;-56
2021/12/18 06:07:39;;;;;;;71.50;41.77;;;;;;;;;;5030171;28;20472;-57
2021/12/18 06:10:05;;;;;;;72.97;42.57;;;;;;;;;;4982273;28;20075;-57
2021/12/18 06:12:31;;;;;;;69.50;42.20;;;;;;;;;;5021110;28;20029;-57
2021/12/18 06:14:58;;;;;;;67.43;41.43;;;;;;;;;;5010992;28;20045;-56
2021/12/18 06:17:23;;;;;;;62.17;39.37;;;;;;;;;;5025859;28;20148;-56
2021/12/18 06:19:49;;;;;;;63.47;39.03;;;;;;;;;;5021836;28;20838;-55
2021/12/18 06:22:15;;;;;;;67.87;39.57;;;;;;;;;;5024664;28;20042;-57
2021/12/18 06:24:41;;;;;;;63.33;40.13;;;;;;;;;;5020493;28;20061;-57
2021/12/18 06:27:07;;;;;;;60.53;40.03;;;;;;;;;;5025926;28;20124;-55
2021/12/18 06:29:34;;;;;;;55.80;38.70;;;;;;;;;;5021627;28;20394;-57
2021/12/18 06:32:00;;;;;;;68.10;39.17;;;;;;;;;;5025507;28;20129;-57
2021/12/18 06:34:26;;;;;;;58.10;37.60;;;;;;;;;;5005107;28;20065;-55
2021/12/18 06:36:52;;;;;;;59.77;38.40;;;;;;;;;;5028414;28;20118;-56
2021/12/18 06:39:18;;;;;;;60.27;39.00;;;;;;;;;;5023995;28;20045;-56
2021/12/18 06:41:45;;;;;;;74.90;42.57;;;;;;;;;;5025993;28;20064;-57
2021/12/18 06:44:11;;;;;;;72.70;42.73;;;;;;;;;;5027440;28;20449;-56
2021/12/18 06:46:37;;;;;;;68.40;42.90;;;;;;;;;;5018346;28;20037;-56
2021/12/18 06:49:04;;;;;;;62.87;41.27;;;;;;;;;;5024847;28;20513;-56
2021/12/18 06:51:31;;;;;;;65.83;39.73;;;;;;;;;;5023717;28;20060;-58
2021/12/18 06:53:57;;;;;;;64.40;40.70;;;;;;;;;;5031871;28;20034;-57
2021/12/18 06:56:23;;;;;;;64.63;41.63;;;;;;;;;;5023905;28;20489;-58
2021/12/18 06:58:49;;;;;;;65.77;41.17;;;;;;;;;;5030706;28;20045;-57
2021/12/18 07:01:15;;;;;;;62.30;40.40;;;;;;;;;;5024857;28;20041;-57
2021/12/18 07:03:41;;;;;;;62.33;40.77;;;;;;;;;;5028011;28;20080;-55
2021/12/18 07:06:07;;;;;;;60.17;40.00;;;;;;;;;;5024986;28;20049;-56
2021/12/18 07:08:33;;;;;;;65.67;41.60;;;;;;;;;;5012393;28;20053;-54
2021/12/18 07:10:59;;;;;;;60.23;39.07;;;;;;;;;;5018547;28;20073;-56
2021/12/18 07:13:25;;;;;;;59.23;39.23;;;;;;;;;;5023699;28;20033;-57
2021/12/18 07:15:52;;;;;;;62.30;41.07;;;;;;;;;;5001886;28;20425;-56
2021/12/18 07:18:18;;;;;;;59.07;39.73;;;;;;;;;;5023346;28;20033;-56
2021/12/18 07:20:44;;;;;;;66.83;41.70;;;;;;;;;;5004416;28;20068;-56
2021/12/18 07:23:10;;;;;;;64.93;41.07;;;;;;;;;;5017437;28;20495;-55
2021/12/18 07:25:36;;;;;;;62.50;41.63;;;;;;;;;;5016699;28;20046;-55
2021/12/18 07:28:02;;;;;;;62.37;40.90;;;;;;;;;;5018858;28;20045;-55
2021/12/18 07:30:28;;;;;;;58.80;39.57;;;;;;;;;;5023283;28;20064;-56
2021/12/18 07:32:54;;;;;;;63.27;40.07;;;;;;;;;;5002934;28;20030;-57
2021/12/18 07:35:20;;;;;;;60.77;39.57;;;;;;;;;;5023488;28;20149;-56
2021/12/18 07:37:48;;;;;;;61.03;40.07;;;;;;;;;;5019902;28;20132;-56
2021/12/18 07:40:14;;;;;;;62.90;39.33;;;;;;;;;;5022984;28;20037;-56
2021/12/18 07:42:41;;;;;;;60.97;37.80;;;;;;;;;;5018418;28;20045;-56
2021/12/18 07:45:07;;;;;;;62.77;40.37;;;;;;;;;;5016405;28;20551;-56
2021/12/18 07:47:33;;;;;;;63.33;40.07;;;;;;;;;;5016246;28;20498;-56
2021/12/18 07:49:59;;;;;;;59.67;39.53;;;;;;;;;;5018508;28;20038;-56
2021/12/18 07:52:25;;;;;;;60.93;39.70;;;;;;;;;;5022395;28;20038;-56
2021/12/18 07:54:51;;;;;;;61.50;40.50;;;;;;;;;;5010961;28;20078;-55
2021/12/18 07:57:18;;;;;;;63.27;41.10;;;;;;;;;;4992563;28;20091;-55
2021/12/18 07:59:45;;;;;;;62.57;39.23;;;;;;;;;;5011582;28;20057;-56
2021/12/18 08:02:11;;;;;;;58.07;38.97;;;;;;;;;;5017361;28;20042;-55
2021/12/18 08:04:37;;;;;;;62.53;40.60;;;;;;;;;;5006892;28;20072;-56
2021/12/18 08:07:05;;;;;;;61.80;40.57;;;;;;;;;;5017100;28;20541;-58
2021/12/18 08:09:32;;;;;;;62.00;41.33;;;;;;;;;;5000259;28;20057;-57
2021/12/18 08:11:58;;;;;;;60.87;41.27;;;;;;;;;;5018404;28;20418;-56
2021/12/18 08:14:24;;;;;;;61.90;41.30;;;;;;;;;;4991446;28;20042;-56
2021/12/18 08:16:50;;;;;;;64.00;41.27;;;;;;;;;;5014564;28;20063;-56
2021/12/18 08:19:16;;;;;;;66.60;41.47;;;;;;;;;;5008242;28;20522;-57
2021/12/18 08:21:42;;;;;;;64.67;40.97;;;;;;;;;;5013077;28;20589;-56
2021/12/18 08:24:09;;;;;;;64.47;39.90;;;;;;;;;;5002537;28;20566;-55
2021/12/18 08:26:35;;;;;;;62.67;41.40;;;;;;;;;;5014767;28;20038;-55
2021/12/18 08:29:01;;;;;;;64.03;41.73;;;;;;;;;;5016229;28;20041;-56
2021/12/18 08:31:27;;;;;;;69.47;41.87;;;;;;;;;;5019577;28;20495;-57
2021/12/18 08:33:53;;;;;;;64.63;41.87;;;;;;;;;;5012631;28;20052;-57
2021/12/18 08:36:19;;;;;;;66.20;42.63;;;;;;;;;;5014546;28;20081;-57
2021/12/18 08:38:45;;;;;;;67.97;43.73;;;;;;;;;;5019925;28;20506;-56
2021/12/18 08:41:11;;;;;;;71.30;46.03;;;;;;;;;;5014618;28;20060;-57
2021/12/18 08:43:37;;;;;;;67.33;41.43;;;;;;;;;;5015958;28;20042;-56
2021/12/18 08:46:03;;;;;;;65.57;41.90;;;;;;;;;;5014677;28;20048;-57
2021/12/18 08:48:29;;;;;;;68.70;44.20;;;;;;;;;;5022131;28;20391;-57
2021/12/18 08:50:55;;;;;;;69.27;42.13;;;;;;;;;;5017924;28;20437;-57
2021/12/18 08:53:22;;;;;;;66.60;42.23;;;;;;;;;;5022765;28;20041;-57
2021/12/18 08:55:48;;;;;;;72.90;44.27;;;;;;;;;;5015965;28;20033;-56
2021/12/18 08:58:14;;;;;;;69.63;43.93;;;;;;;;;;5020744;28;20044;-57
2021/12/18 09:00:40;;;;;;;68.80;43.17;;;;;;;;;;5021346;28;20047;-56
2021/12/18 09:03:06;;;;;;;71.23;43.93;;;;;;;;;;5022762;28;20490;-57
2021/12/18 09:05:32;;;;;;;68.57;43.07;;;;;;;;;;5018979;28;20050;-57
2021/12/18 09:07:59;;;;;;;76.03;45.67;;;;;;;;;;5023583;28;20049;-57
2021/12/18 09:10:25;;;;;;;68.13;41.33;;;;;;;;;;5011620;28;20064;-56
2021/12/18 09:12:51;;;;;;;64.67;44.87;;;;;;;;;;5004635;28;20049;-55
2021/12/18 09:15:18;;;;;;;66.37;42.93;;;;;;;;;;5007746;28;20037;-58
2021/12/18 09:17:44;;;;;;;67.27;43.47;;;;;;;;;;5019826;28;20116;-58
2021/12/18 09:20:10;;;;;;;70.10;44.73;;;;;;;;;;5020299;28;20392;-57
2021/12/18 09:22:36;;;;;;;65.23;42.53;;;;;;;;;;5018279;28;20041;-57
2021/12/18 09:25:05;;;;;;;65.23;41.77;;;;;;;;;;5020672;28;20557;-57
2021/12/18 09:27:31;;;;;;;67.77;43.90;;;;;;;;;;5012577;28;20084;-57
2021/12/18 09:29:57;;;;;;;72.10;44.20;;;;;;;;;;5020233;28;20081;-57
2021/12/18 09:32:23;;;;;;;67.80;42.37;;;;;;;;;;5007651;28;20200;-58
2021/12/18 09:34:54;;;;;;;68.10;43.10;;;;;;;;;;5016455;28;20502;-57
2021/12/18 09:37:20;;;;;;;68.70;43.10;;;;;;;;;;5014870;28;20050;-56
2021/12/18 09:39:46;;;;;;;67.13;42.13;;;;;;;;;;5013424;28;20049;-55
2021/12/18 09:42:12;;;;;;;62.43;39.93;;;;;;;;;;5013546;28;20168;-56
2021/12/18 09:44:38;;;;;;;64.93;41.43;;;;;;;;;;5011166;28;20422;-57
2021/12/18 09:47:05;;;;;;;67.57;43.20;;;;;;;;;;5016055;28;20044;-57
2021/12/18 09:49:31;;;;;;;65.37;42.20;;;;;;;;;;5018803;28;20706;-57
2021/12/18 09:51:58;;;;;;;63.20;41.03;;;;;;;;;;5011328;28;20069;-57
2021/12/18 09:54:24;;;;;;;70.70;43.00;;;;;;;;;;5014494;28;20046;-57
2021/12/18 09:56:51;;;;;;;66.10;43.17;;;;;;;;;;5017405;28;20509;-58
2021/12/18 09:59:17;;;;;;;68.83;42.53;;;;;;;;;;5016606;28;20092;-57
2021/12/18 10:01:43;;;;;;;66.27;40.90;;;;;;;;;;5016487;28;20045;-59
2021/12/18 10:04:28;;;;;;;70.93;40.70;;;;;;;;;;5016205;28;20090;-59
2021/12/18 10:06:56;;;;;;;62.33;39.85;;;;;;;;;;5016216;28;20501;-58
2021/12/18 10:09:22;;;;;;;63.07;40.97;;;;;;;;;;5022983;28;20046;-54
2021/12/18 10:11:50;;;;;;;78.53;43.00;;;;;;;;;;5015735;28;20403;-58
2021/12/18 10:14:17;;;;;;;64.20;40.17;;;;;;;;;;5016224;28;20516;-58
2021/12/18 10:16:47;;;;;;;66.17;41.03;;;;;;;;;;5018218;28;20041;-57
2021/12/18 10:19:24;;;;;;;67.50;41.03;;;;;;;;;;5011156;28;20549;-57
2021/12/18 10:22:04;;;;;;;64.63;41.53;;;;;;;;;;5015183;28;20034;-57
2021/12/18 10:24:31;;;;;;;59.73;38.70;;;;;;;;;;5008044;28;20087;-56
2021/12/18 10:26:57;;;;;;;64.17;40.67;;;;;;;;;;5015225;28;20163;-58
2021/12/18 10:29:30;;;;;;;64.47;41.53;;;;;;;;;;5007919;28;20053;-58
2021/12/18 10:31:56;;;;;;;65.63;42.07;;;;;;;;;;5017695;28;20463;-56
2021/12/18 10:34:24;;;;;;;62.93;40.47;;;;;;;;;;5011670;28;20100;-59
2021/12/18 10:37:08;;;;;;;67.27;42.00;;;;;;;;;;5011455;28;20081;-59
2021/12/18 10:39:34;;;;;;;56.63;39.80;;;;;;;;;;5011131;28;20042;-58
2021/12/18 10:42:19;;;;;;;57.60;38.33;;;;;;;;;;5012157;28;20153;-59
2021/12/18 10:44:59;;;;;;;61.75;37.70;;;;;;;;;;5008852;28;20091;-58
2021/12/18 10:47:25;;;;;;;62.30;40.33;;;;;;;;;;5010828;28;20046;-58
2021/12/18 10:49:51;;;;;;;68.20;40.47;;;;;;;;;;4997601;28;20041;-59
2021/12/18 10:52:17;;;;;;;67.00;40.83;;;;;;;;;;5020742;28;20124;-58
2021/12/18 10:54:43;;;;;;;60.67;39.90;;;;;;;;;;5020501;28;20120;-59
2021/12/18 10:57:21;;;;;;;58.27;38.57;;;;;;;;;;5003268;28;20029;-58
2021/12/18 10:59:51;;;;;;;62.17;41.40;;;;;;;;;;5021992;28;20048;-59
2021/12/18 11:02:17;;;;;;;59.57;38.63;;;;;;;;;;5026083;28;20033;-58
2021/12/18 11:04:44;;;;;;;59.47;39.07;;;;;;;;;;5020684;28;20506;-59
2021/12/18 11:07:18;;;;;;;63.47;39.67;;;;;;;;;;5029682;28;20048;-58
2021/12/18 18:09:04;;;;;;;100.82;53.85;;;;;;;;;;4999027;28;20161;-64
2021/12/18 18:11:30;;;;;;;101.03;51.13;;;;;;;;;;5011504;28;20018;-65
2021/12/18 18:13:57;;;;;;;97.07;51.53;;;;;;;;;;5004029;28;20026;-65
2021/12/18 18:16:23;;;;;;;88.33;50.77;;;;;;;;;;5004473;28;20033;-66
2021/12/18 18:18:50;;;;;;;94.87;51.20;;;;;;;;;;5006033;28;20038;-65
2021/12/18 18:21:17;;;;;;;91.77;49.57;;;;;;;;;;5010669;28;20022;-65
2021/12/18 18:23:43;;;;;;;95.97;50.03;;;;;;;;;;5004531;28;20022;-65
2021/12/18 18:26:09;;;;;;;87.03;50.20;;;;;;;;;;5012050;28;20065;-65
2021/12/18 18:28:36;;;;;;;90.13;49.03;;;;;;;;;;5003973;28;20032;-65
2021/12/18 18:31:04;;;;;;;92.30;50.03;;;;;;;;;;5006408;28;20025;-66
2021/12/18 18:33:31;;;;;;;97.33;51.20;;;;;;;;;;5007840;28;20054;-65
2021/12/18 18:35:57;;;;;;;92.73;51.00;;;;;;;;;;5008318;28;20053;-65
2021/12/18 18:38:23;;;;;;;91.20;50.83;;;;;;;;;;5005109;28;20034;-65
2021/12/18 18:40:50;;;;;;;87.57;47.90;;;;;;;;;;5011206;28;20033;-65
2021/12/18 18:43:23;;;;;;;85.67;48.53;;;;;;;;;;5005828;28;20478;-65
2021/12/18 18:45:58;;;;;;;89.10;47.93;;;;;;;;;;5009786;28;20033;-65
2021/12/18 18:48:26;;;;;;;82.00;49.58;;;;;;;;;;5002243;28;20025;-65
2021/12/18 18:50:54;;;;;;;88.30;47.60;;;;;;;;;;5008701;28;20352;-66
2021/12/18 18:53:21;;;;;;;94.33;51.93;;;;;;;;;;5011316;28;20605;-66
2021/12/18 18:55:47;;;;;;;87.00;48.03;;;;;;;;;;5007184;28;20036;-66
2021/12/18 18:58:13;;;;;;;93.00;52.27;;;;;;;;;;5010466;28;20108;-66
2021/12/18 19:00:40;;;;;;;98.10;52.63;;;;;;;;;;5010551;28;20395;-66
2021/12/18 19:03:06;;;;;;;95.20;48.97;;;;;;;;;;5003442;28;20064;-65
2021/12/18 19:05:32;;;;;;;79.97;48.20;;;;;;;;;;5006898;28;20491;-65
2021/12/18 19:07:58;;;;;;;91.83;51.17;;;;;;;;;;5007651;28;20041;-65
2021/12/18 19:10:24;;;;;;;88.70;49.73;;;;;;;;;;5009217;28;20040;-65
2021/12/18 19:12:51;;;;;;;91.07;49.10;;;;;;;;;;5009437;28;20030;-65
2021/12/18 19:15:17;;;;;;;95.13;51.47;;;;;;;;;;5005912;28;20518;-65
2021/12/18 19:17:43;;;;;;;96.13;50.90;;;;;;;;;;5006602;28;20506;-65
2021/12/18 19:20:13;;;;;;;95.80;51.60;;;;;;;;;;5003787;28;20034;-65
2021/12/18 19:22:40;;;;;;;88.37;50.40;;;;;;;;;;5010383;28;20068;-65
2021/12/18 19:25:07;;;;;;;92.63;48.87;;;;;;;;;;5008737;28;20034;-65
2021/12/18 19:27:34;;;;;;;95.27;50.47;;;;;;;;;;5008817;28;20093;-65
2021/12/18 19:30:00;;;;;;;101.43;52.57;;;;;;;;;;5004790;28;20476;-65
2021/12/18 19:32:27;;;;;;;103.30;54.03;;;;;;;;;;5006542;28;20121;-65
2021/12/18 19:34:54;;;;;;;105.43;54.17;;;;;;;;;;5001473;28;20030;-65
2021/12/18 19:37:23;;;;;;;104.30;52.97;;;;;;;;;;5008255;28;20511;-65
2021/12/18 19:39:49;;;;;;;100.63;53.27;;;;;;;;;;5003022;28;20029;-65
2021/12/18 19:42:15;;;;;;;107.50;54.87;;;;;;;;;;4990521;28;20053;-65
2021/12/18 19:44:41;;;;;;;101.03;52.10;;;;;;;;;;5009160;28;20040;-65
2021/12/18 19:47:07;;;;;;;106.17;54.20;;;;;;;;;;5005656;28;20026;-66
2021/12/18 19:49:34;;;;;;;96.33;51.57;;;;;;;;;;5009122;28;20056;-65
2021/12/18 19:52:00;;;;;;;98.07;51.30;;;;;;;;;;5005410;28;20072;-64
2021/12/18 19:54:26;;;;;;;106.20;53.47;;;;;;;;;;5009567;28;20386;-64
2021/12/18 19:56:52;;;;;;;102.77;52.60;;;;;;;;;;5005896;28;20130;-64
2021/12/18 19:59:21;;;;;;;96.10;52.33;;;;;;;;;;5004175;28;20574;-64
2021/12/18 20:01:56;;;;;;;104.50;52.07;;;;;;;;;;5004375;28;20022;-63
2021/12/18 20:04:31;;;;;;;106.60;55.03;;;;;;;;;;5008084;28;20109;-63
2021/12/18 20:07:01;;;;;;;97.93;50.57;;;;;;;;;;5007445;28;20109;-63
2021/12/18 20:09:27;;;;;;;97.07;50.57;;;;;;;;;;5008536;28;20026;-63
2021/12/18 20:11:53;;;;;;;97.00;53.43;;;;;;;;;;5005414;28;20057;-63
2021/12/18 20:14:22;;;;;;;101.07;53.33;;;;;;;;;;5009142;28;20097;-64
2021/12/18 20:16:49;;;;;;;106.87;52.83;;;;;;;;;;5005514;28;20030;-64
2021/12/18 20:19:15;;;;;;;96.47;52.83;;;;;;;;;;5007414;28;20034;-64
2021/12/18 20:21:41;;;;;;;96.30;50.80;;;;;;;;;;5007028;28;20022;-64
2021/12/18 20:24:09;;;;;;;99.07;51.23;;;;;;;;;;5008402;28;20037;-64
2021/12/18 20:26:35;;;;;;;100.87;51.30;;;;;;;;;;4986268;28;20038;-64
2021/12/18 20:29:01;;;;;;;89.47;50.17;;;;;;;;;;5008925;28;20024;-64
2021/12/18 20:31:28;;;;;;;93.90;50.33;;;;;;;;;;5004869;28;20030;-64
2021/12/18 20:33:55;;;;;;;91.07;51.17;;;;;;;;;;5005892;28;20046;-64
2021/12/18 20:36:22;;;;;;;94.30;50.40;;;;;;;;;;5009559;28;20060;-64
2021/12/18 20:38:48;;;;;;;95.50;50.17;;;;;;;;;;4994197;28;20053;-66
2021/12/18 20:41:15;;;;;;;102.83;54.30;;;;;;;;;;5009238;28;20025;-64
2021/12/18 20:43:42;;;;;;;99.00;51.53;;;;;;;;;;5002044;28;20060;-64
2021/12/18 20:46:09;;;;;;;98.57;51.30;;;;;;;;;;5008921;28;20034;-64
2021/12/18 20:48:38;;;;;;;95.77;49.40;;;;;;;;;;5006363;28;20471;-64
2021/12/18 20:51:08;;;;;;;93.67;51.20;;;;;;;;;;5012340;28;20082;-64
2021/12/18 20:53:35;;;;;;;93.63;49.33;;;;;;;;;;5009071;28;20037;-65
2021/12/18 20:56:02;;;;;;;93.87;49.37;;;;;;;;;;5004081;28;20022;-65
2021/12/18 20:58:28;;;;;;;94.33;49.63;;;;;;;;;;5009879;28;20467;-65
2021/12/18 21:00:56;;;;;;;81.27;45.63;;;;;;;;;;5007787;28;20109;-65
2021/12/18 21:03:23;;;;;;;84.83;46.93;;;;;;;;;;5014038;28;20030;-64
2021/12/18 21:05:49;;;;;;;86.93;47.67;;;;;;;;;;5012290;28;20034;-64
2021/12/18 21:08:16;;;;;;;86.13;48.50;;;;;;;;;;5012556;28;20057;-65
2021/12/18 21:10:43;;;;;;;82.03;45.57;;;;;;;;;;5009453;28;20029;-64
2021/12/18 21:13:10;;;;;;;80.30;46.57;;;;;;;;;;5013105;28;20014;-64
2021/12/18 21:15:36;;;;;;;75.57;44.70;;;;;;;;;;5012939;28;20097;-64
2021/12/18 21:18:03;;;;;;;82.07;46.13;;;;;;;;;;5010926;28;20396;-64
2021/12/18 21:20:30;;;;;;;82.73;47.17;;;;;;;;;;4995477;28;20034;-64
2021/12/18 21:22:56;;;;;;;84.43;46.57;;;;;;;;;;5003781;28;20033;-64
2021/12/18 21:25:24;;;;;;;88.87;47.80;;;;;;;;;;4994025;28;20045;-65
2021/12/18 21:27:50;;;;;;;93.63;51.67;;;;;;;;;;5007762;28;20031;-64
2021/12/18 21:30:17;;;;;;;90.00;48.13;;;;;;;;;;5010658;28;20038;-64
2021/12/18 21:32:45;;;;;;;93.80;51.70;;;;;;;;;;5008556;28;20037;-64
2021/12/18 21:37:57;;;;;;;95.03;49.67;;;;;;;;;;5006830;28;20048;-64
2021/12/18 21:40:23;;;;;;;98.40;51.10;;;;;;;;;;5009328;28;20030;-64
2021/12/18 21:42:49;;;;;;;93.90;51.13;;;;;;;;;;5008815;28;20030;-64
2021/12/18 21:45:16;;;;;;;99.10;52.63;;;;;;;;;;5010820;28;20461;-64
2021/12/18 21:47:42;;;;;;;92.77;51.57;;;;;;;;;;5011793;28;20018;-65
2021/12/18 21:50:08;;;;;;;90.60;48.70;;;;;;;;;;5006690;28;20402;-64
2021/12/18 21:52:34;;;;;;;89.77;47.47;;;;;;;;;;5010704;28;20037;-64
2021/12/18 21:58:04;;;;;;;90.57;51.07;;;;;;;;;;5006613;28;20033;-65
2021/12/18 22:00:31;;;;;;;91.13;51.70;;;;;;;;;;5010198;28;20032;-64
2021/12/18 22:02:57;;;;;;;94.63;48.83;;;;;;;;;;5011783;28;20013;-64
2021/12/18 22:05:31;;;;;;;91.40;49.73;;;;;;;;;;5009757;28;20117;-64
2021/12/18 22:07:58;;;;;;;98.22;50.80;;;;;;;;;;5012366;28;20038;-65
2021/12/18 22:10:26;;;;;;;97.93;53.87;;;;;;;;;;5010785;28;20117;-64
2021/12/18 22:12:52;;;;;;;102.77;53.10;;;;;;;;;;5010151;28;20029;-65
2021/12/18 22:15:18;;;;;;;102.00;52.83;;;;;;;;;;5001976;28;20030;-64